sensor_id;sensor_type;location;lat;lon;timestamp;pressure;altitude;pressure_sealevel;temperature;humidity
39129;BME280;24864;49.940;19.770;2022-09-14T00:01:26;97287.44;;;16.27;100.00
39129;BME280;24864;49.940;19.770;2022-09-14T00:03:56;97289.81;;;16.25;100.00
39129;BME280;24864;49.940;19.770;2022-09-14T00:06:25;97285.47;;;16.24;100.00
39129;BME280;24864;49.940;19.770;2022-09-14T00:08:55;97290.19;;;16.27;100.00
39129;BME280;24864;49.940;19.770;2022-09-14T00:11:26;97292.97;;;16.20;100.00
39129;BME280;24864;49.940;19.770;2022-09-14T00:13:56;97285.91;;;16.19;100.00
39129;BME280;24864;49.940;19.770;2022-09-14T00:16:26;97275.75;;;16.09;100.00
39129;BME280;24864;49.940;19.770;2022-09-14T00:18:57;97291.44;;;16.15;100.00
39129;BME280;24864;49.940;19.770;2022-09-14T00:21:26;97289.09;;;16.14;100.00
39129;BME280;24864;49.940;19.770;2022-09-14T00:23:54;97293.03;;;16.13;100.00
39129;BME280;24864;49.940;19.770;2022-09-14T00:26:22;97284.38;;;16.14;100.00
39129;BME280;24864;49.940;19.770;2022-09-14T00:28:55;97278.88;;;16.11;100.00
39129;BME280;24864;49.940;19.770;2022-09-14T00:31:24;97286.72;;;16.12;100.00
39129;BME280;24864;49.940;19.770;2022-09-14T00:33:53;97285.94;;;16.15;100.00
39129;BME280;24864;49.940;19.770;2022-09-14T00:36:23;97280.44;;;16.12;100.00
39129;BME280;24864;49.940;19.770;2022-09-14T00:38:52;97271.38;;;16.15;100.00
39129;BME280;24864;49.940;19.770;2022-09-14T00:41:25;97281.59;;;16.18;100.00
39129;BME280;24864;49.940;19.770;2022-09-14T00:43:57;97271.78;;;16.17;100.00
39129;BME280;24864;49.940;19.770;2022-09-14T00:46:26;97269.44;;;16.12;100.00
39129;BME280;24864;49.940;19.770;2022-09-14T00:48:56;97276.88;;;16.15;100.00
39129;BME280;24864;49.940;19.770;2022-09-14T00:51:26;97282.78;;;16.17;100.00
39129;BME280;24864;49.940;19.770;2022-09-14T00:53:55;97274.16;;;16.11;100.00
39129;BME280;24864;49.940;19.770;2022-09-14T00:56:24;97277.31;;;16.06;100.00
39129;BME280;24864;49.940;19.770;2022-09-14T00:58:56;97276.16;;;16.03;100.00
39129;BME280;24864;49.940;19.770;2022-09-14T01:01:25;97273.81;;;16.02;100.00
39129;BME280;24864;49.940;19.770;2022-09-14T01:03:54;97276.56;;;16.05;100.00
39129;BME280;24864;49.940;19.770;2022-09-14T01:06:28;97279.69;;;16.08;100.00
39129;BME280;24864;49.940;19.770;2022-09-14T01:09:11;97273.44;;;16.00;100.00
39129;BME280;24864;49.940;19.770;2022-09-14T01:11:53;97270.31;;;16.01;100.00
39129;BME280;24864;49.940;19.770;2022-09-14T01:14:29;97274.25;;;16.00;100.00
39129;BME280;24864;49.940;19.770;2022-09-14T01:17:05;97270.31;;;15.98;100.00
39129;BME280;24864;49.940;19.770;2022-09-14T01:19:47;97266.78;;;15.97;100.00
39129;BME280;24864;49.940;19.770;2022-09-14T01:22:24;97272.66;;;15.99;100.00
39129;BME280;24864;49.940;19.770;2022-09-14T01:25:02;97265.59;;;16.02;100.00
39129;BME280;24864;49.940;19.770;2022-09-14T01:27:36;97267.16;;;15.99;100.00
39129;BME280;24864;49.940;19.770;2022-09-14T01:30:09;97264.84;;;15.94;100.00
39129;BME280;24864;49.940;19.770;2022-09-14T01:32:42;97270.31;;;16.01;100.00
39129;BME280;24864;49.940;19.770;2022-09-14T01:35:15;97261.66;;;15.99;100.00
39129;BME280;24864;49.940;19.770;2022-09-14T01:37:49;97257.34;;;15.98;100.00
39129;BME280;24864;49.940;19.770;2022-09-14T01:40:21;97258.97;;;15.92;100.00
39129;BME280;24864;49.940;19.770;2022-09-14T01:42:55;97258.59;;;15.79;100.00
39129;BME280;24864;49.940;19.770;2022-09-14T01:45:26;97250.72;;;15.81;100.00
39129;BME280;24864;49.940;19.770;2022-09-14T01:47:59;97244.47;;;15.77;100.00
39129;BME280;24864;49.940;19.770;2022-09-14T01:50:31;97251.56;;;15.74;100.00
39129;BME280;24864;49.940;19.770;2022-09-14T01:53:05;97242.94;;;15.72;100.00
39129;BME280;24864;49.940;19.770;2022-09-14T01:55:39;97240.56;;;15.78;100.00
39129;BME280;24864;49.940;19.770;2022-09-14T01:58:13;97239.00;;;15.73;100.00
39129;BME280;24864;49.940;19.770;2022-09-14T02:00:45;97227.19;;;15.77;100.00
39129;BME280;24864;49.940;19.770;2022-09-14T02:03:16;97226.41;;;15.80;100.00
39129;BME280;24864;49.940;19.770;2022-09-14T02:05:49;97227.19;;;15.77;100.00
39129;BME280;24864;49.940;19.770;2022-09-14T02:08:19;97209.53;;;15.74;100.00
39129;BME280;24864;49.940;19.770;2022-09-14T02:10:48;97222.84;;;15.79;100.00
39129;BME280;24864;49.940;19.770;2022-09-14T02:13:17;97222.91;;;15.76;100.00
39129;BME280;24864;49.940;19.770;2022-09-14T02:15:45;97212.25;;;15.78;100.00
39129;BME280;24864;49.940;19.770;2022-09-14T02:18:13;97213.06;;;15.78;100.00
39129;BME280;24864;49.940;19.770;2022-09-14T02:20:44;97213.09;;;15.74;100.00
39129;BME280;24864;49.940;19.770;2022-09-14T02:23:13;97213.44;;;15.77;100.00
39129;BME280;24864;49.940;19.770;2022-09-14T02:25:41;97211.91;;;15.76;100.00
39129;BME280;24864;49.940;19.770;2022-09-14T02:28:09;97215.81;;;15.78;100.00
39129;BME280;24864;49.940;19.770;2022-09-14T02:30:45;97209.91;;;15.80;100.00
39129;BME280;24864;49.940;19.770;2022-09-14T02:36:08;97209.94;;;15.72;100.00
39129;BME280;24864;49.940;19.770;2022-09-14T02:38:46;97211.56;;;15.66;100.00
39129;BME280;24864;49.940;19.770;2022-09-14T02:41:24;97209.97;;;15.65;100.00
39129;BME280;24864;49.940;19.770;2022-09-14T02:43:59;97202.47;;;15.69;100.00
39129;BME280;24864;49.940;19.770;2022-09-14T02:46:35;97210.72;;;15.69;100.00
39129;BME280;24864;49.940;19.770;2022-09-14T02:49:09;97193.44;;;15.72;100.00
39129;BME280;24864;49.940;19.770;2022-09-14T02:51:42;97205.19;;;15.77;100.00
39129;BME280;24864;49.940;19.770;2022-09-14T02:54:15;97202.84;;;15.75;100.00
39129;BME280;24864;49.940;19.770;2022-09-14T02:56:45;97194.19;;;15.77;100.00
39129;BME280;24864;49.940;19.770;2022-09-14T02:59:13;97197.38;;;15.71;100.00
39129;BME280;24864;49.940;19.770;2022-09-14T03:01:42;97197.38;;;15.71;100.00
39129;BME280;24864;49.940;19.770;2022-09-14T03:04:10;97188.00;;;15.65;100.00
39129;BME280;24864;49.940;19.770;2022-09-14T03:06:38;97191.50;;;15.69;100.00
39129;BME280;24864;49.940;19.770;2022-09-14T03:09:06;97192.69;;;15.68;100.00
39129;BME280;24864;49.940;19.770;2022-09-14T03:11:34;97194.25;;;15.69;100.00
39129;BME280;24864;49.940;19.770;2022-09-14T03:14:02;97193.50;;;15.65;100.00
39129;BME280;24864;49.940;19.770;2022-09-14T03:16:30;97188.78;;;15.66;100.00
39129;BME280;24864;49.940;19.770;2022-09-14T03:18:59;97180.19;;;15.60;100.00
39129;BME280;24864;49.940;19.770;2022-09-14T03:21:27;97175.84;;;15.59;100.00
39129;BME280;24864;49.940;19.770;2022-09-14T03:23:54;97183.34;;;15.55;100.00
39129;BME280;24864;49.940;19.770;2022-09-14T03:26:25;97182.56;;;15.51;100.00
39129;BME280;24864;49.940;19.770;2022-09-14T03:28:55;97185.75;;;15.46;100.00
39129;BME280;24864;49.940;19.770;2022-09-14T03:31:25;97179.78;;;15.58;100.00
39129;BME280;24864;49.940;19.770;2022-09-14T03:33:53;97174.69;;;15.60;100.00
39129;BME280;24864;49.940;19.770;2022-09-14T03:36:24;97180.19;;;15.60;100.00
39129;BME280;24864;49.940;19.770;2022-09-14T03:38:55;97189.22;;;15.57;100.00
39129;BME280;24864;49.940;19.770;2022-09-14T03:41:24;97185.78;;;15.35;100.00
39129;BME280;24864;49.940;19.770;2022-09-14T03:43:52;97180.41;;;15.06;100.00
39129;BME280;24864;49.940;19.770;2022-09-14T03:46:22;97193.72;;;15.11;100.00
39129;BME280;24864;49.940;19.770;2022-09-14T03:48:50;97189.06;;;15.04;100.00
39129;BME280;24864;49.940;19.770;2022-09-14T03:51:18;97182.78;;;15.00;100.00
39129;BME280;24864;49.940;19.770;2022-09-14T03:53:47;97178.47;;;14.99;100.00
39129;BME280;24864;49.940;19.770;2022-09-14T03:56:17;97172.59;;;15.04;100.00
39129;BME280;24864;49.940;19.770;2022-09-14T03:58:47;97178.84;;;15.05;100.00
39129;BME280;24864;49.940;19.770;2022-09-14T04:01:17;97180.00;;;15.11;100.00
39129;BME280;24864;49.940;19.770;2022-09-14T04:03:46;97177.25;;;15.11;100.00
39129;BME280;24864;49.940;19.770;2022-09-14T04:06:14;97178.81;;;15.19;100.00
39129;BME280;24864;49.940;19.770;2022-09-14T04:08:43;97183.47;;;15.22;100.00
39129;BME280;24864;49.940;19.770;2022-09-14T04:11:15;97182.31;;;15.23;100.00
39129;BME280;24864;49.940;19.770;2022-09-14T04:13:43;97177.19;;;15.29;100.00
39129;BME280;24864;49.940;19.770;2022-09-14T04:16:12;97176.81;;;15.27;100.00
39129;BME280;24864;49.940;19.770;2022-09-14T04:18:40;97169.75;;;15.26;100.00
39129;BME280;24864;49.940;19.770;2022-09-14T04:21:12;97188.16;;;15.36;100.00
39129;BME280;24864;49.940;19.770;2022-09-14T04:23:40;97183.03;;;15.38;100.00
39129;BME280;24864;49.940;19.770;2022-09-14T04:26:30;97175.19;;;15.33;100.00
39129;BME280;24864;49.940;19.770;2022-09-14T04:28:58;97185.78;;;15.38;100.00
39129;BME280;24864;49.940;19.770;2022-09-14T04:31:27;97177.50;;;15.42;100.00
39129;BME280;24864;49.940;19.770;2022-09-14T04:33:55;97171.25;;;15.41;100.00
39129;BME280;24864;49.940;19.770;2022-09-14T04:36:24;97173.19;;;15.45;100.00
39129;BME280;24864;49.940;19.770;2022-09-14T04:38:54;97170.09;;;15.35;100.00
39129;BME280;24864;49.940;19.770;2022-09-14T04:41:23;97166.91;;;15.48;100.00
39129;BME280;24864;49.940;19.770;2022-09-14T04:43:54;97165.38;;;15.39;100.00
39129;BME280;24864;49.940;19.770;2022-09-14T04:46:23;97172.88;;;15.28;100.00
39129;BME280;24864;49.940;19.770;2022-09-14T04:48:52;97170.91;;;15.25;100.00
39129;BME280;24864;49.940;19.770;2022-09-14T04:51:22;97167.00;;;15.22;100.00
39129;BME280;24864;49.940;19.770;2022-09-14T04:53:51;97181.13;;;15.28;100.00
39129;BME280;24864;49.940;19.770;2022-09-14T04:56:20;97172.44;;;15.37;100.00
39129;BME280;24864;49.940;19.770;2022-09-14T04:58:51;97177.16;;;15.40;100.00
39129;BME280;24864;49.940;19.770;2022-09-14T05:01:22;97180.22;;;15.53;100.00
39129;BME280;24864;49.940;19.770;2022-09-14T05:03:51;97177.81;;;15.62;100.00
39129;BME280;24864;49.940;19.770;2022-09-14T05:06:21;97178.59;;;15.63;100.00
39129;BME280;24864;49.940;19.770;2022-09-14T05:08:50;97179.75;;;15.65;100.00
39129;BME280;24864;49.940;19.770;2022-09-14T05:11:21;97165.97;;;15.72;100.00
39129;BME280;24864;49.940;19.770;2022-09-14T05:13:50;97173.81;;;15.74;100.00
39129;BME280;24864;49.940;19.770;2022-09-14T05:16:22;97163.56;;;15.82;100.00
39129;BME280;24864;49.940;19.770;2022-09-14T05:18:52;97175.34;;;15.86;100.00
39129;BME280;24864;49.940;19.770;2022-09-14T05:21:22;97176.09;;;15.90;100.00
39129;BME280;24864;49.940;19.770;2022-09-14T05:23:54;97180.81;;;15.89;100.00
39129;BME280;24864;49.940;19.770;2022-09-14T05:26:22;97182.47;;;15.72;100.00
39129;BME280;24864;49.940;19.770;2022-09-14T05:28:52;97183.38;;;15.48;100.00
39129;BME280;24864;49.940;19.770;2022-09-14T05:31:23;97175.22;;;15.26;100.00
39129;BME280;24864;49.940;19.770;2022-09-14T05:33:52;97191.31;;;15.27;100.00
39129;BME280;24864;49.940;19.770;2022-09-14T05:36:20;97179.97;;;15.22;100.00
39129;BME280;24864;49.940;19.770;2022-09-14T05:38:48;97183.09;;;15.24;100.00
39129;BME280;24864;49.940;19.770;2022-09-14T05:41:17;97178.44;;;15.10;100.00
39129;BME280;24864;49.940;19.770;2022-09-14T05:43:45;97174.06;;;15.27;100.00
39129;BME280;24864;49.940;19.770;2022-09-14T05:46:14;97176.78;;;15.34;100.00
39129;BME280;24864;49.940;19.770;2022-09-14T05:48:44;97166.19;;;15.36;100.00
39129;BME280;24864;49.940;19.770;2022-09-14T05:51:14;97180.69;;;15.33;100.00
39129;BME280;24864;49.940;19.770;2022-09-14T05:53:46;97174.03;;;15.34;100.00
39129;BME280;24864;49.940;19.770;2022-09-14T05:56:15;97175.56;;;15.42;100.00
39129;BME280;24864;49.940;19.770;2022-09-14T05:58:44;97174.31;;;15.51;100.00
39129;BME280;24864;49.940;19.770;2022-09-14T06:01:14;97163.72;;;15.56;100.00
39129;BME280;24864;49.940;19.770;2022-09-14T06:03:44;97165.94;;;15.76;100.00
39129;BME280;24864;49.940;19.770;2022-09-14T06:06:14;97178.47;;;15.92;100.00
39129;BME280;24864;49.940;19.770;2022-09-14T06:08:43;97167.03;;;15.93;100.00
39129;BME280;24864;49.940;19.770;2022-09-14T06:11:13;97172.06;;;16.05;100.00
39129;BME280;24864;49.940;19.770;2022-09-14T06:13:42;97173.91;;;16.19;100.00
39129;BME280;24864;49.940;19.770;2022-09-14T06:16:12;97172.66;;;16.31;100.00
39129;BME280;24864;49.940;19.770;2022-09-14T06:18:41;97182.03;;;16.37;100.00
39129;BME280;24864;49.940;19.770;2022-09-14T06:21:14;97178.00;;;16.49;100.00
39129;BME280;24864;49.940;19.770;2022-09-14T06:23:43;97171.63;;;16.56;100.00
39129;BME280;24864;49.940;19.770;2022-09-14T06:26:11;97180.28;;;16.58;100.00
39129;BME280;24864;49.940;19.770;2022-09-14T06:28:39;97178.56;;;16.72;100.00
39129;BME280;24864;49.940;19.770;2022-09-14T06:31:11;97172.16;;;16.82;100.00
39129;BME280;24864;49.940;19.770;2022-09-14T06:33:42;97170.53;;;16.92;100.00
39129;BME280;24864;49.940;19.770;2022-09-14T06:36:13;97175.16;;;16.98;100.00
39129;BME280;24864;49.940;19.770;2022-09-14T06:38:45;97173.78;;;17.17;100.00
39129;BME280;24864;49.940;19.770;2022-09-14T06:41:17;97183.22;;;17.16;100.00
39129;BME280;24864;49.940;19.770;2022-09-14T06:43:46;97195.25;;;17.30;100.00
39129;BME280;24864;49.940;19.770;2022-09-14T06:46:16;97192.00;;;17.39;100.00
39129;BME280;24864;49.940;19.770;2022-09-14T06:48:47;97188.06;;;17.40;100.00
39129;BME280;24864;49.940;19.770;2022-09-14T06:51:18;97195.41;;;17.50;100.00
39129;BME280;24864;49.940;19.770;2022-09-14T06:53:47;97197.44;;;17.46;100.00
39129;BME280;24864;49.940;19.770;2022-09-14T06:56:15;97200.81;;;17.26;100.00
39129;BME280;24864;49.940;19.770;2022-09-14T06:58:44;97202.47;;;17.20;100.00
39129;BME280;24864;49.940;19.770;2022-09-14T07:01:13;97206.38;;;17.23;100.00
39129;BME280;24864;49.940;19.770;2022-09-14T07:03:42;97207.16;;;17.23;100.00
39129;BME280;24864;49.940;19.770;2022-09-14T07:06:12;97214.13;;;17.31;100.00
39129;BME280;24864;49.940;19.770;2022-09-14T07:08:43;97210.53;;;17.04;100.00
39129;BME280;24864;49.940;19.770;2022-09-14T07:11:13;97201.06;;;17.05;100.00
39129;BME280;24864;49.940;19.770;2022-09-14T07:13:43;97209.47;;;17.28;100.00
39129;BME280;24864;49.940;19.770;2022-09-14T07:16:12;97206.41;;;17.19;100.00
39129;BME280;24864;49.940;19.770;2022-09-14T07:18:41;97209.00;;;17.33;100.00
39129;BME280;24864;49.940;19.770;2022-09-14T07:21:11;97203.88;;;17.36;100.00
39129;BME280;24864;49.940;19.770;2022-09-14T07:23:40;97205.69;;;17.46;100.00
39129;BME280;24864;49.940;19.770;2022-09-14T07:26:12;97202.47;;;17.51;100.00
39129;BME280;24864;49.940;19.770;2022-09-14T07:28:41;97200.47;;;17.55;100.00
39129;BME280;24864;49.940;19.770;2022-09-14T07:31:14;97201.56;;;17.61;100.00
39129;BME280;24864;49.940;19.770;2022-09-14T07:33:43;97191.75;;;17.60;100.00
39129;BME280;24864;49.940;19.770;2022-09-14T07:36:11;97190.81;;;17.71;100.00
39129;BME280;24864;49.940;19.770;2022-09-14T07:38:40;97192.75;;;17.74;100.00
39129;BME280;24864;49.940;19.770;2022-09-14T07:41:29;97192.31;;;17.75;100.00
39129;BME280;24864;49.940;19.770;2022-09-14T07:43:58;97196.22;;;17.78;100.00
39129;BME280;24864;49.940;19.770;2022-09-14T07:46:28;97190.66;;;17.81;100.00
39129;BME280;24864;49.940;19.770;2022-09-14T07:48:57;97194.75;;;17.70;100.00
39129;BME280;24864;49.940;19.770;2022-09-14T07:51:26;97189.22;;;17.70;100.00
39129;BME280;24864;49.940;19.770;2022-09-14T07:53:56;97188.66;;;17.82;100.00
39129;BME280;24864;49.940;19.770;2022-09-14T07:56:26;97196.59;;;17.80;100.00
39129;BME280;24864;49.940;19.770;2022-09-14T07:58:57;97197.59;;;17.93;100.00
39129;BME280;24864;49.940;19.770;2022-09-14T08:01:45;97199.97;;;17.91;100.00
39129;BME280;24864;49.940;19.770;2022-09-14T08:04:15;97196.03;;;17.92;100.00
39129;BME280;24864;49.940;19.770;2022-09-14T08:06:42;97194.94;;;17.86;100.00
39129;BME280;24864;49.940;19.770;2022-09-14T08:09:11;97199.19;;;17.94;100.00
39129;BME280;24864;49.940;19.770;2022-09-14T08:11:39;97192.63;;;18.12;100.00
39129;BME280;24864;49.940;19.770;2022-09-14T08:14:10;97187.22;;;18.28;100.00
39129;BME280;24864;49.940;19.770;2022-09-14T08:16:40;97191.84;;;18.35;100.00
39129;BME280;24864;49.940;19.770;2022-09-14T08:19:11;97200.41;;;18.17;100.00
39129;BME280;24864;49.940;19.770;2022-09-14T08:21:40;97196.78;;;18.24;100.00
39129;BME280;24864;49.940;19.770;2022-09-14T08:24:15;97189.47;;;18.10;100.00
39129;BME280;24864;49.940;19.770;2022-09-14T08:26:43;97193.69;;;18.18;100.00
39129;BME280;24864;49.940;19.770;2022-09-14T08:29:13;97196.13;;;18.40;100.00
39129;BME280;24864;49.940;19.770;2022-09-14T08:31:43;97185.13;;;18.36;100.00
39129;BME280;24864;49.940;19.770;2022-09-14T08:34:12;97191.91;;;18.55;100.00
39129;BME280;24864;49.940;19.770;2022-09-14T08:36:41;97193.50;;;18.76;100.00
39129;BME280;24864;49.940;19.770;2022-09-14T08:39:11;97189.34;;;18.88;100.00
39129;BME280;24864;49.940;19.770;2022-09-14T08:41:45;97199.69;;;18.84;100.00
39129;BME280;24864;49.940;19.770;2022-09-14T08:44:19;97188.97;;;18.86;100.00
39129;BME280;24864;49.940;19.770;2022-09-14T08:46:52;97193.56;;;18.97;100.00
39129;BME280;24864;49.940;19.770;2022-09-14T08:49:27;97186.69;;;19.05;100.00
39129;BME280;24864;49.940;19.770;2022-09-14T08:51:59;97193.78;;;19.06;100.00
39129;BME280;24864;49.940;19.770;2022-09-14T08:54:27;97193.28;;;19.11;100.00
39129;BME280;24864;49.940;19.770;2022-09-14T08:57:00;97194.44;;;19.34;100.00
39129;BME280;24864;49.940;19.770;2022-09-14T08:59:42;97187.34;;;19.33;100.00
39129;BME280;24864;49.940;19.770;2022-09-14T09:02:22;97197.41;;;19.43;100.00
39129;BME280;24864;49.940;19.770;2022-09-14T09:04:55;97183.31;;;19.74;100.00
39129;BME280;24864;49.940;19.770;2022-09-14T09:07:31;97191.50;;;19.98;100.00
39129;BME280;24864;49.940;19.770;2022-09-14T09:10:04;97189.63;;;20.11;100.00
39129;BME280;24864;49.940;19.770;2022-09-14T09:12:37;97187.38;;;20.22;100.00
39129;BME280;24864;49.940;19.770;2022-09-14T09:15:18;97191.09;;;20.16;100.00
39129;BME280;24864;49.940;19.770;2022-09-14T09:17:50;97187.56;;;20.32;100.00
39129;BME280;24864;49.940;19.770;2022-09-14T09:20:22;97186.31;;;20.49;100.00
39129;BME280;24864;49.940;19.770;2022-09-14T09:22:54;97183.91;;;20.51;100.00
39129;BME280;24864;49.940;19.770;2022-09-14T09:25:32;97193.78;;;20.36;100.00
39129;BME280;24864;49.940;19.770;2022-09-14T09:28:09;97178.56;;;20.44;100.00
39129;BME280;24864;49.940;19.770;2022-09-14T09:30:40;97187.72;;;20.58;100.00
39129;BME280;24864;49.940;19.770;2022-09-14T09:33:14;97189.09;;;20.49;100.00
39129;BME280;24864;49.940;19.770;2022-09-14T09:35:43;97179.06;;;20.55;100.00
39129;BME280;24864;49.940;19.770;2022-09-14T09:38:14;97185.19;;;20.63;100.00
39129;BME280;24864;49.940;19.770;2022-09-14T09:40:45;97188.91;;;20.73;100.00
39129;BME280;24864;49.940;19.770;2022-09-14T09:43:15;97174.72;;;20.71;100.00
39129;BME280;24864;49.940;19.770;2022-09-14T09:46:06;97183.28;;;20.44;100.00
39129;BME280;24864;49.940;19.770;2022-09-14T09:48:39;97176.09;;;20.46;100.00
39129;BME280;24864;49.940;19.770;2022-09-14T09:51:10;97184.75;;;20.81;100.00
39129;BME280;24864;49.940;19.770;2022-09-14T09:53:45;97186.59;;;21.01;100.00
39129;BME280;24864;49.940;19.770;2022-09-14T09:56:19;97187.78;;;21.16;100.00
39129;BME280;24864;49.940;19.770;2022-09-14T09:58:47;97183.56;;;21.25;100.00
39129;BME280;24864;49.940;19.770;2022-09-14T10:01:21;97187.16;;;21.38;100.00
39129;BME280;24864;49.940;19.770;2022-09-14T10:04:04;97180.34;;;21.56;100.00
39129;BME280;24864;49.940;19.770;2022-09-14T10:06:39;97173.50;;;21.73;100.00
39129;BME280;24864;49.940;19.770;2022-09-14T10:09:13;97172.50;;;21.67;100.00
39129;BME280;24864;49.940;19.770;2022-09-14T10:11:42;97165.38;;;21.66;100.00
39129;BME280;24864;49.940;19.770;2022-09-14T10:14:21;97175.00;;;21.48;100.00
39129;BME280;24864;49.940;19.770;2022-09-14T10:16:51;97176.88;;;21.51;100.00
39129;BME280;24864;49.940;19.770;2022-09-14T10:19:21;97174.44;;;21.11;100.00
39129;BME280;24864;49.940;19.770;2022-09-14T10:22:12;97165.81;;;21.09;100.00
39129;BME280;24864;49.940;19.770;2022-09-14T10:24:52;97173.09;;;21.03;100.00
39129;BME280;24864;49.940;19.770;2022-09-14T10:27:45;97170.97;;;20.94;100.00
39129;BME280;24864;49.940;19.770;2022-09-14T10:30:15;97166.03;;;20.85;100.00
39129;BME280;24864;49.940;19.770;2022-09-14T10:32:48;97168.31;;;20.74;100.00
39129;BME280;24864;49.940;19.770;2022-09-14T10:35:19;97175.66;;;20.64;100.00
39129;BME280;24864;49.940;19.770;2022-09-14T10:38:11;97164.25;;;20.46;99.61
39129;BME280;24864;49.940;19.770;2022-09-14T10:40:44;97170.59;;;20.30;100.00
39129;BME280;24864;49.940;19.770;2022-09-14T10:43:16;97161.59;;;20.26;99.75
39129;BME280;24864;49.940;19.770;2022-09-14T10:45:48;97167.41;;;20.15;100.00
39129;BME280;24864;49.940;19.770;2022-09-14T10:48:28;97171.66;;;20.19;100.00
39129;BME280;24864;49.940;19.770;2022-09-14T10:51:05;97171.63;;;20.36;100.00
39129;BME280;24864;49.940;19.770;2022-09-14T10:53:48;97170.25;;;20.28;100.00
39129;BME280;24864;49.940;19.770;2022-09-14T10:56:21;97155.72;;;20.23;100.00
39129;BME280;24864;49.940;19.770;2022-09-14T10:59:01;97165.91;;;20.10;100.00
39129;BME280;24864;49.940;19.770;2022-09-14T11:01:43;97172.50;;;20.00;100.00
39129;BME280;24864;49.940;19.770;2022-09-14T11:04:35;97171.97;;;20.05;100.00
39129;BME280;24864;49.940;19.770;2022-09-14T11:07:10;97172.66;;;19.93;100.00
39129;BME280;24864;49.940;19.770;2022-09-14T11:09:43;97167.72;;;19.64;100.00
39129;BME280;24864;49.940;19.770;2022-09-14T11:12:19;97171.53;;;19.70;100.00
39129;BME280;24864;49.940;19.770;2022-09-14T11:15:02;97166.53;;;19.65;100.00
39129;BME280;24864;49.940;19.770;2022-09-14T11:17:55;97165.03;;;19.60;100.00
39129;BME280;24864;49.940;19.770;2022-09-14T11:20:34;97166.88;;;19.67;100.00
39129;BME280;24864;49.940;19.770;2022-09-14T11:23:22;97161.44;;;19.63;100.00
39129;BME280;24864;49.940;19.770;2022-09-14T11:25:55;97156.72;;;19.80;100.00
39129;BME280;24864;49.940;19.770;2022-09-14T11:28:27;97156.00;;;19.76;100.00
39129;BME280;24864;49.940;19.770;2022-09-14T11:30:56;97155.31;;;19.72;100.00
39129;BME280;24864;49.940;19.770;2022-09-14T11:33:33;97152.53;;;19.72;100.00
39129;BME280;24864;49.940;19.770;2022-09-14T11:36:08;97146.94;;;19.39;100.00
39129;BME280;24864;49.940;19.770;2022-09-14T11:38:42;97150.72;;;19.29;100.00
39129;BME280;24864;49.940;19.770;2022-09-14T11:41:19;97136.63;;;19.03;100.00
39129;BME280;24864;49.940;19.770;2022-09-14T11:43:53;97138.53;;;19.06;100.00
39129;BME280;24864;49.940;19.770;2022-09-14T11:46:26;97141.94;;;18.93;100.00
39129;BME280;24864;49.940;19.770;2022-09-14T11:49:03;97146.25;;;18.94;100.00
39129;BME280;24864;49.940;19.770;2022-09-14T11:51:36;97141.31;;;18.82;100.00
39129;BME280;24864;49.940;19.770;2022-09-14T11:54:10;97145.88;;;18.92;100.00
39129;BME280;24864;49.940;19.770;2022-09-14T11:56:40;97143.13;;;18.92;100.00
39129;BME280;24864;49.940;19.770;2022-09-14T11:59:32;97143.09;;;18.72;100.00
39129;BME280;24864;49.940;19.770;2022-09-14T12:05:31;97144.75;;;18.46;100.00
39129;BME280;24864;49.940;19.770;2022-09-14T12:08:25;97154.47;;;18.30;100.00
39129;BME280;24864;49.940;19.770;2022-09-14T12:10:59;97151.59;;;18.38;100.00
39129;BME280;24864;49.940;19.770;2022-09-14T12:13:27;97156.25;;;18.17;100.00
39129;BME280;24864;49.940;19.770;2022-09-14T12:16:03;97160.28;;;18.12;100.00
39129;BME280;24864;49.940;19.770;2022-09-14T12:18:32;97160.38;;;18.05;100.00
39129;BME280;24864;49.940;19.770;2022-09-14T12:21:04;97158.06;;;18.04;100.00
39129;BME280;24864;49.940;19.770;2022-09-14T12:23:45;97152.72;;;17.89;100.00
39129;BME280;24864;49.940;19.770;2022-09-14T12:26:35;97158.22;;;17.89;100.00
39129;BME280;24864;49.940;19.770;2022-09-14T12:29:26;97153.47;;;17.93;100.00
39129;BME280;24864;49.940;19.770;2022-09-14T12:32:01;97166.50;;;17.89;100.00
39129;BME280;24864;49.940;19.770;2022-09-14T12:34:31;97169.25;;;17.89;100.00
39129;BME280;24864;49.940;19.770;2022-09-14T12:37:28;97149.91;;;17.65;100.00
39129;BME280;24864;49.940;19.770;2022-09-14T12:46:09;97154.66;;;17.65;100.00
39129;BME280;24864;49.940;19.770;2022-09-14T12:48:54;97154.84;;;17.50;100.00
39129;BME280;24864;49.940;19.770;2022-09-14T12:51:34;97158.72;;;17.57;100.00
39129;BME280;24864;49.940;19.770;2022-09-14T12:54:15;97159.31;;;17.41;100.00
39129;BME280;24864;49.940;19.770;2022-09-14T12:56:50;97150.19;;;17.44;100.00
39129;BME280;24864;49.940;19.770;2022-09-14T12:59:27;97155.75;;;17.40;100.00
39129;BME280;24864;49.940;19.770;2022-09-14T13:02:13;97148.53;;;17.50;100.00
39129;BME280;24864;49.940;19.770;2022-09-14T13:04:44;97144.97;;;17.53;100.00
39129;BME280;24864;49.940;19.770;2022-09-14T13:07:14;97148.63;;;17.46;100.00
39129;BME280;24864;49.940;19.770;2022-09-14T13:09:45;97144.91;;;17.29;100.00
39129;BME280;24864;49.940;19.770;2022-09-14T13:12:22;97140.41;;;17.43;100.00
39129;BME280;24864;49.940;19.770;2022-09-14T13:14:52;97140.66;;;17.52;100.00
39129;BME280;24864;49.940;19.770;2022-09-14T13:17:23;97134.00;;;17.77;100.00
39129;BME280;24864;49.940;19.770;2022-09-14T13:19:55;97121.41;;;17.76;100.00